createdAt,value
2023-01-29T00:02:07.419Z,99.90
2023-01-29T00:04:35.544Z,99.90
2023-01-29T00:07:03.650Z,99.90
2023-01-29T00:09:32.262Z,99.90
2023-01-29T00:12:01.667Z,99.90
2023-01-29T00:14:29.675Z,99.90
2023-01-29T00:16:57.714Z,99.90
2023-01-29T00:19:25.672Z,99.90
2023-01-29T00:21:53.739Z,99.90
2023-01-29T00:24:22.580Z,99.90
2023-01-29T00:26:51.087Z,99.90
2023-01-29T00:29:21.900Z,99.90
2023-01-29T00:31:50.162Z,99.90
2023-01-29T00:34:18.427Z,99.90
2023-01-29T00:36:46.545Z,99.90
2023-01-29T00:39:14.570Z,99.90
2023-01-29T00:42:00.045Z,99.90
2023-01-29T00:44:46.769Z,99.90
2023-01-29T00:47:34.401Z,99.90
2023-01-29T00:50:03.260Z,99.90
2023-01-29T00:52:31.573Z,99.90
2023-01-29T00:55:01.343Z,99.90
2023-01-29T00:57:31.466Z,99.90
2023-01-29T01:00:01.158Z,99.90
2023-01-29T01:02:47.159Z,99.90
2023-01-29T01:05:20.034Z,99.90
2023-01-29T01:07:49.025Z,99.90
2023-01-29T01:10:22.282Z,99.90
2023-01-29T01:12:54.276Z,99.90
2023-01-29T01:15:25.320Z,99.90
2023-01-29T01:17:55.120Z,99.90
2023-01-29T01:20:23.396Z,99.90
2023-01-29T01:22:51.617Z,99.90
2023-01-29T01:25:19.880Z,99.90
2023-01-29T01:27:47.897Z,99.90
2023-01-29T01:30:17.638Z,99.90
2023-01-29T01:32:47.374Z,99.90
2023-01-29T01:35:15.760Z,99.90
2023-01-29T01:37:44.102Z,99.90
2023-01-29T01:40:18.042Z,99.90
2023-01-29T01:42:48.853Z,99.90
2023-01-29T01:45:21.504Z,99.90
2023-01-29T01:47:53.792Z,99.90
2023-01-29T01:50:28.255Z,99.90
2023-01-29T01:53:00.942Z,99.90
2023-01-29T01:55:31.276Z,99.90
2023-01-29T01:58:07.570Z,99.90
2023-01-29T02:00:35.730Z,99.90
2023-01-29T02:03:23.321Z,99.90
2023-01-29T02:06:09.719Z,99.90
2023-01-29T02:09:04.028Z,99.90
2023-01-29T02:11:32.289Z,99.90
2023-01-29T02:14:00.763Z,99.90
2023-01-29T02:16:28.752Z,99.90
2023-01-29T02:18:58.290Z,99.90
2023-01-29T02:21:44.010Z,99.90
2023-01-29T02:24:44.524Z,99.90
2023-01-29T02:27:16.603Z,99.90
2023-01-29T02:29:57.861Z,99.90
2023-01-29T02:32:32.508Z,99.90
2023-01-29T02:35:29.615Z,99.90
2023-01-29T02:38:10.762Z,99.90
2023-01-29T02:40:44.902Z,99.90
2023-01-29T02:43:25.244Z,99.90
2023-01-29T02:46:02.928Z,99.90
2023-01-29T02:48:40.767Z,99.90
2023-01-29T02:51:14.910Z,99.90
2023-01-29T02:53:50.730Z,99.90
2023-01-29T02:56:22.727Z,99.90
2023-01-29T02:58:55.484Z,99.90
2023-01-29T03:01:31.288Z,99.90
2023-01-29T03:04:04.412Z,99.90
2023-01-29T03:06:37.135Z,99.90
2023-01-29T03:09:08.962Z,99.90
2023-01-29T03:11:41.458Z,99.90
2023-01-29T03:14:14.262Z,99.90
2023-01-29T03:16:48.671Z,99.90
2023-01-29T03:19:20.372Z,99.90
2023-01-29T03:21:59.144Z,99.90
2023-01-29T03:24:53.066Z,99.90
2023-01-29T03:27:44.500Z,99.90
2023-01-29T03:30:35.056Z,99.90
2023-01-29T03:33:09.558Z,99.90
2023-01-29T03:35:41.195Z,99.90
2023-01-29T03:38:12.238Z,99.90
2023-01-29T03:40:48.765Z,99.90
2023-01-29T03:43:27.500Z,99.90
2023-01-29T03:46:04.784Z,99.90
2023-01-29T03:48:37.625Z,99.90
2023-01-29T03:51:17.598Z,99.90
2023-01-29T03:53:51.513Z,99.90
2023-01-29T03:56:34.192Z,99.90
2023-01-29T03:59:11.104Z,99.90
2023-01-29T04:01:47.597Z,99.90
2023-01-29T04:04:22.038Z,99.90
2023-01-29T04:06:53.167Z,99.90
2023-01-29T04:09:24.971Z,77.30
2023-01-29T04:11:58.276Z,73.70
2023-01-29T04:14:26.845Z,91.10
2023-01-29T04:16:58.820Z,99.90
2023-01-29T04:19:29.263Z,97.50
2023-01-29T04:22:04.919Z,82.00
2023-01-29T04:24:33.599Z,56.70
2023-01-29T04:27:12.258Z,66.00
2023-01-29T04:30:05.685Z,64.70
2023-01-29T04:32:42.257Z,51.50
2023-01-29T04:35:22.448Z,44.10
2023-01-29T04:38:02.765Z,46.20
2023-01-29T04:40:37.638Z,66.90
2023-01-29T04:43:10.044Z,34.80
2023-01-29T04:45:47.775Z,28.50
2023-01-29T04:48:22.464Z,34.80
2023-01-29T04:51:07.531Z,38.40
2023-01-29T04:53:43.702Z,40.10
2023-01-29T04:56:20.194Z,39.10
2023-01-29T04:58:53.294Z,40.80
2023-01-29T05:01:25.806Z,37.60
2023-01-29T05:03:55.627Z,25.10
2023-01-29T05:06:26.492Z,34.50
2023-01-29T05:08:55.806Z,37.00
2023-01-29T05:11:25.888Z,49.60
2023-01-29T05:13:54.478Z,43.20
2023-01-29T05:16:26.462Z,40.30
2023-01-29T05:18:55.245Z,37.80
2023-01-29T05:21:25.590Z,33.50
2023-01-29T05:24:11.640Z,43.70
2023-01-29T05:26:57.225Z,36.20
2023-01-29T05:29:25.598Z,23.40
2023-01-29T05:31:53.689Z,23.90
2023-01-29T05:34:21.828Z,22.60
2023-01-29T05:36:51.257Z,29.00
2023-01-29T05:39:19.356Z,19.60
2023-01-29T05:41:47.333Z,22.30
2023-01-29T05:44:15.469Z,17.70
2023-01-29T05:46:44.025Z,17.00
2023-01-29T05:49:12.132Z,20.60
2023-01-29T05:51:40.265Z,14.30
2023-01-29T05:54:11.849Z,13.00
2023-01-29T05:56:39.863Z,14.70
2023-01-29T05:59:07.860Z,9.10
2023-01-29T06:01:35.927Z,14.50
2023-01-29T06:04:03.975Z,15.20
2023-01-29T06:06:32.312Z,20.70
2023-01-29T06:09:00.338Z,19.20
2023-01-29T06:11:29.699Z,7.60
2023-01-29T06:13:57.683Z,1.00
2023-01-29T06:16:25.638Z,1.00
2023-01-29T06:18:53.663Z,1.00
2023-01-29T06:21:21.623Z,1.00
2023-01-29T06:23:49.746Z,1.90
2023-01-29T06:26:17.725Z,1.00
2023-01-29T06:28:50.018Z,1.00
2023-01-29T06:31:37.717Z,1.00
2023-01-29T06:34:06.217Z,1.00
2023-01-29T06:36:34.339Z,13.20
2023-01-29T06:39:02.347Z,1.00
2023-01-29T06:41:30.359Z,1.00
2023-01-29T06:43:59.709Z,1.00
2023-01-29T06:46:27.718Z,1.00
2023-01-29T06:48:55.717Z,1.00
2023-01-29T06:51:23.736Z,1.00
2023-01-29T06:53:51.749Z,1.00
2023-01-29T06:56:19.809Z,1.00
2023-01-29T06:58:47.807Z,1.00
2023-01-29T07:01:33.332Z,1.00
2023-01-29T07:04:03.039Z,1.00
2023-01-29T07:06:31.931Z,1.00
2023-01-29T07:09:00.017Z,1.00
2023-01-29T07:11:28.115Z,1.00
2023-01-29T07:13:56.193Z,1.00
2023-01-29T07:16:26.416Z,1.00
2023-01-29T07:18:54.653Z,1.00
2023-01-29T07:21:22.675Z,1.00
2023-01-29T07:23:50.725Z,1.00
2023-01-29T07:26:18.743Z,1.00
2023-01-29T07:28:46.749Z,1.00
2023-01-29T07:31:16.074Z,1.00
2023-01-29T07:33:46.268Z,1.00
2023-01-29T07:36:15.595Z,1.00
2023-01-29T07:38:43.540Z,1.00
2023-01-29T07:41:12.744Z,1.00
2023-01-29T07:43:40.907Z,1.00
2023-01-29T07:46:09.270Z,1.00
2023-01-29T07:48:37.300Z,1.00
2023-01-29T07:51:07.172Z,1.00
2023-01-29T07:53:35.872Z,1.00
2023-01-29T07:56:04.213Z,1.00
2023-01-29T07:58:32.429Z,1.00
2023-01-29T08:01:00.760Z,1.00
2023-01-29T08:03:28.876Z,1.00
2023-01-29T08:05:58.567Z,1.00
2023-01-29T08:08:28.026Z,1.00
2023-01-29T08:10:56.033Z,1.00
2023-01-29T08:13:24.027Z,1.00
2023-01-29T08:15:52.022Z,1.00
2023-01-29T08:18:20.056Z,1.00
2023-01-29T08:20:48.087Z,1.00
2023-01-29T08:23:17.520Z,1.00
2023-01-29T08:25:46.931Z,9.90
2023-01-29T08:28:14.998Z,1.00
2023-01-29T08:30:44.163Z,1.00
2023-01-29T08:33:12.169Z,1.00
2023-01-29T08:35:41.221Z,1.00
2023-01-29T08:38:10.477Z,1.00
2023-01-29T08:40:38.503Z,1.00
2023-01-29T08:43:09.765Z,1.00
2023-01-29T08:45:39.482Z,1.00
2023-01-29T08:48:08.272Z,1.00
2023-01-29T08:50:36.435Z,1.00
2023-01-29T08:53:07.691Z,1.00
2023-01-29T08:55:37.776Z,1.00
2023-01-29T08:58:07.920Z,5.10
2023-01-29T09:00:36.482Z,7.10
2023-01-29T09:03:04.726Z,32.10
2023-01-29T09:05:32.823Z,8.60
2023-01-29T09:08:01.128Z,12.50
2023-01-29T09:10:29.188Z,22.40
2023-01-29T09:12:57.171Z,25.60
2023-01-29T09:15:26.655Z,20.30
2023-01-29T09:17:54.732Z,24.30
2023-01-29T09:20:23.240Z,17.20
2023-01-29T09:22:53.595Z,18.80
2023-01-29T09:25:21.702Z,22.30
2023-01-29T09:27:49.770Z,30.90
2023-01-29T09:30:18.909Z,20.50
2023-01-29T09:32:55.503Z,28.00
2023-01-29T09:35:23.913Z,30.00
2023-01-29T09:37:52.789Z,41.70
2023-01-29T09:40:27.048Z,36.40
2023-01-29T09:43:01.190Z,41.20
2023-01-29T09:45:30.397Z,33.50
2023-01-29T09:48:01.800Z,27.40
2023-01-29T09:50:39.812Z,32.70
2023-01-29T09:53:17.578Z,27.80
2023-01-29T09:55:50.622Z,13.20
2023-01-29T09:58:25.576Z,7.70
2023-01-29T10:01:03.207Z,10.50
2023-01-29T10:04:08.224Z,36.50
2023-01-29T10:06:50.887Z,32.00
2023-01-29T10:09:44.748Z,35.20
2023-01-29T10:12:30.868Z,11.40
2023-01-29T10:15:08.852Z,15.90
2023-01-29T10:17:52.034Z,14.00
2023-01-29T10:20:50.283Z,13.20
2023-01-29T10:23:25.333Z,16.40
2023-01-29T10:25:54.793Z,35.10
2023-01-29T10:28:29.090Z,37.70
2023-01-29T10:31:01.488Z,40.10
2023-01-29T10:33:49.264Z,61.30
2023-01-29T10:36:35.692Z,38.20
2023-01-29T10:39:03.944Z,57.10
2023-01-29T10:41:54.505Z,54.60
2023-01-29T10:44:31.699Z,48.70
2023-01-29T10:47:18.421Z,49.10
2023-01-29T10:50:18.720Z,71.70
2023-01-29T10:53:03.111Z,93.30
2023-01-29T10:55:42.926Z,99.90
2023-01-29T10:58:21.215Z,99.90
2023-01-29T11:00:49.638Z,99.90
2023-01-29T11:03:27.856Z,99.90
2023-01-29T11:06:03.988Z,99.90
2023-01-29T11:08:39.267Z,99.90
2023-01-29T11:11:12.661Z,99.90
2023-01-29T11:13:44.651Z,99.90
2023-01-29T11:16:13.222Z,99.90
2023-01-29T11:18:56.349Z,99.90
2023-01-29T11:21:25.769Z,99.90
2023-01-29T11:24:08.403Z,99.90
2023-01-29T11:26:41.155Z,99.90
2023-01-29T11:29:33.789Z,91.40
2023-01-29T11:32:04.441Z,96.20
2023-01-29T11:34:32.739Z,91.20
2023-01-29T11:37:02.156Z,92.90
2023-01-29T11:39:32.845Z,99.90
2023-01-29T11:42:03.776Z,99.90
2023-01-29T11:44:34.603Z,99.90
2023-01-29T11:47:14.250Z,99.90
2023-01-29T11:49:47.579Z,99.90
2023-01-29T11:52:19.013Z,99.90
2023-01-29T11:54:52.416Z,94.80
2023-01-29T11:57:27.767Z,95.80
2023-01-29T11:59:59.283Z,97.70
2023-01-29T12:02:32.979Z,99.90
2023-01-29T12:05:05.947Z,99.90
2023-01-29T12:07:35.042Z,90.00
2023-01-29T12:10:04.765Z,79.30
2023-01-29T12:12:39.286Z,87.20
2023-01-29T12:15:19.596Z,51.50
2023-01-29T12:18:04.423Z,81.40
2023-01-29T12:20:38.744Z,84.40
2023-01-29T12:23:23.308Z,81.80
2023-01-29T12:26:00.446Z,70.20
2023-01-29T12:28:40.609Z,56.60
2023-01-29T12:31:17.739Z,98.80
2023-01-29T12:33:55.328Z,98.80
2023-01-29T12:36:27.887Z,78.00
2023-01-29T12:38:56.658Z,50.80
2023-01-29T12:41:33.858Z,58.90
2023-01-29T12:44:07.703Z,66.10
2023-01-29T12:46:41.774Z,64.00
2023-01-29T12:49:17.073Z,84.30
2023-01-29T12:51:56.899Z,49.70
2023-01-29T12:54:34.783Z,39.70
2023-01-29T12:57:10.582Z,57.80
2023-01-29T12:59:44.424Z,51.70
2023-01-29T13:02:23.888Z,62.10
2023-01-29T13:04:58.337Z,44.80
2023-01-29T13:07:31.707Z,50.10
2023-01-29T13:10:08.643Z,59.80
2023-01-29T13:12:41.280Z,51.20
2023-01-29T13:15:22.885Z,37.70
2023-01-29T13:17:54.204Z,40.60
2023-01-29T13:20:29.798Z,43.90
2023-01-29T13:23:04.124Z,54.70
2023-01-29T13:25:32.462Z,45.00
2023-01-29T13:28:02.208Z,50.80
2023-01-29T13:30:32.332Z,91.90
2023-01-29T13:33:10.506Z,68.30
2023-01-29T13:35:42.726Z,97.30
2023-01-29T13:38:25.992Z,38.50
2023-01-29T13:40:58.225Z,64.80
2023-01-29T13:43:38.784Z,74.00
2023-01-29T13:46:10.469Z,74.00
2023-01-29T13:48:44.473Z,59.40
2023-01-29T13:51:17.807Z,70.60
2023-01-29T13:53:55.359Z,73.10
2023-01-29T13:56:47.852Z,98.90
2023-01-29T13:59:49.308Z,90.80
2023-01-29T14:02:30.297Z,99.90
2023-01-29T14:05:35.916Z,96.50
2023-01-29T14:08:07.068Z,99.10
2023-01-29T14:10:36.751Z,99.90
2023-01-29T14:13:35.267Z,99.90
2023-01-29T14:16:29.929Z,99.90
2023-01-29T14:19:01.834Z,99.90
2023-01-29T14:21:32.505Z,99.90
2023-01-29T14:24:09.640Z,99.90
2023-01-29T14:26:45.486Z,99.90
2023-01-29T14:29:32.473Z,99.90
2023-01-29T14:32:19.451Z,99.90
2023-01-29T14:34:51.231Z,99.90
2023-01-29T14:37:27.631Z,99.90
2023-01-29T14:39:58.910Z,99.90
2023-01-29T14:42:30.583Z,99.90
2023-01-29T14:45:01.585Z,99.90
2023-01-29T14:48:09.615Z,99.90
2023-01-29T14:50:49.453Z,99.90
2023-01-29T14:53:29.335Z,99.90
2023-01-29T14:56:02.707Z,99.90
2023-01-29T14:58:39.219Z,99.90
2023-01-29T15:01:17.060Z,99.90
2023-01-29T15:03:48.909Z,99.90
2023-01-29T15:06:31.643Z,99.90
2023-01-29T15:09:06.875Z,99.90
2023-01-29T15:11:41.028Z,99.90
2023-01-29T15:14:24.220Z,99.90
2023-01-29T15:17:30.278Z,99.90
2023-01-29T15:19:58.469Z,99.90
2023-01-29T15:22:30.526Z,99.90
2023-01-29T15:25:07.763Z,99.90
2023-01-29T15:27:36.123Z,99.90
2023-01-29T15:30:08.041Z,99.90
2023-01-29T15:32:38.425Z,99.90
2023-01-29T15:35:11.098Z,99.90
2023-01-29T15:37:41.458Z,99.90
2023-01-29T15:40:17.742Z,99.90
2023-01-29T15:42:48.684Z,99.90
2023-01-29T15:45:25.744Z,99.90
2023-01-29T15:47:56.352Z,99.90
2023-01-29T15:50:24.663Z,99.90
2023-01-29T15:52:55.769Z,99.90
2023-01-29T15:55:25.509Z,99.90
2023-01-29T15:57:54.151Z,99.90
2023-01-29T16:00:25.101Z,99.90
2023-01-29T16:02:54.704Z,99.90
2023-01-29T16:05:26.574Z,99.90
2023-01-29T16:07:58.017Z,99.90
2023-01-29T16:10:29.336Z,99.90
2023-01-29T16:12:58.508Z,99.90
2023-01-29T16:15:33.720Z,99.90
2023-01-29T16:18:22.402Z,99.90
2023-01-29T16:20:53.525Z,99.90
2023-01-29T16:23:27.567Z,99.90
2023-01-29T16:25:57.835Z,99.90
2023-01-29T16:28:25.897Z,99.90
2023-01-29T16:30:58.063Z,99.90
2023-01-29T16:33:34.138Z,99.90
2023-01-29T16:36:05.504Z,99.90
2023-01-29T16:38:37.132Z,99.90
2023-01-29T16:41:15.637Z,99.90
2023-01-29T16:43:51.893Z,99.90
2023-01-29T16:46:35.335Z,99.90
2023-01-29T16:49:04.034Z,99.90
2023-01-29T16:51:37.925Z,99.90
2023-01-29T16:54:17.360Z,99.90
2023-01-29T16:56:46.710Z,99.90
2023-01-29T16:59:21.342Z,99.90
2023-01-29T17:01:50.454Z,99.90
2023-01-29T17:04:19.991Z,99.90
2023-01-29T17:06:50.377Z,99.90
2023-01-29T17:09:25.523Z,99.90
2023-01-29T17:11:56.991Z,99.90
2023-01-29T17:14:25.524Z,99.90
2023-01-29T17:16:56.829Z,99.90
2023-01-29T17:19:25.928Z,99.90
2023-01-29T17:21:54.317Z,99.90
2023-01-29T17:24:23.795Z,99.90
2023-01-29T17:26:52.277Z,99.90
2023-01-29T17:29:21.963Z,99.90
2023-01-29T17:31:50.017Z,99.90
2023-01-29T17:34:18.665Z,99.90
2023-01-29T17:36:47.089Z,99.90
2023-01-29T17:39:19.052Z,99.90
2023-01-29T17:41:51.447Z,99.90
2023-01-29T17:44:19.257Z,99.90
2023-01-29T17:46:47.507Z,99.90
2023-01-29T17:49:25.585Z,99.90
2023-01-29T17:51:54.913Z,99.90
2023-01-29T17:54:24.119Z,99.90
2023-01-29T17:56:54.544Z,99.90
2023-01-29T17:59:24.094Z,99.90
2023-01-29T18:01:53.261Z,99.90
2023-01-29T18:04:21.394Z,99.90
2023-01-29T18:06:51.325Z,99.90
2023-01-29T18:09:21.349Z,99.90
2023-01-29T18:11:50.725Z,99.90
2023-01-29T18:14:20.183Z,99.90
2023-01-29T18:16:48.209Z,99.90
2023-01-29T18:19:21.733Z,99.90
2023-01-29T18:21:50.407Z,99.90
2023-01-29T18:24:20.402Z,99.90
2023-01-29T18:26:48.984Z,99.90
2023-01-29T18:29:17.123Z,99.90
2023-01-29T18:31:49.420Z,99.90
2023-01-29T18:34:17.361Z,99.90
2023-01-29T18:36:47.690Z,99.90
2023-01-29T18:39:15.951Z,99.90
2023-01-29T18:41:44.042Z,99.90
2023-01-29T18:44:12.489Z,99.90
2023-01-29T18:46:40.464Z,99.90
2023-01-29T18:49:10.756Z,99.90
2023-01-29T18:51:38.785Z,99.90
2023-01-29T18:54:06.891Z,99.90
2023-01-29T18:56:34.883Z,99.90
2023-01-29T18:59:05.661Z,99.90
2023-01-29T19:01:34.761Z,99.90
2023-01-29T19:04:03.932Z,99.90
2023-01-29T19:06:39.879Z,99.90
2023-01-29T19:09:07.964Z,99.90
2023-01-29T19:11:35.967Z,99.90
2023-01-29T19:14:03.996Z,99.90
2023-01-29T19:16:31.970Z,99.90
2023-01-29T19:19:00.007Z,99.90
2023-01-29T19:21:28.449Z,99.90
2023-01-29T19:23:58.000Z,99.90
2023-01-29T19:26:27.169Z,99.90
2023-01-29T19:28:55.246Z,99.90
2023-01-29T19:31:23.246Z,99.90
2023-01-29T19:33:51.251Z,99.90
2023-01-29T19:36:19.453Z,99.90
2023-01-29T19:38:49.022Z,99.90
2023-01-29T19:41:18.424Z,99.90
2023-01-29T19:43:48.185Z,99.90
2023-01-29T19:46:16.358Z,99.90
2023-01-29T19:48:44.438Z,99.90
2023-01-29T19:51:13.050Z,99.90
2023-01-29T19:53:44.870Z,99.90
2023-01-29T19:56:15.365Z,99.90
2023-01-29T19:58:44.850Z,99.90
2023-01-29T20:01:16.325Z,99.90
2023-01-29T20:03:46.492Z,99.90
2023-01-29T20:06:16.798Z,99.90
2023-01-29T20:08:46.550Z,99.90
2023-01-29T20:11:14.662Z,99.90
2023-01-29T20:13:44.556Z,99.90
2023-01-29T20:16:12.647Z,99.90
2023-01-29T20:18:40.698Z,99.90
2023-01-29T20:21:10.476Z,99.90
2023-01-29T20:23:39.812Z,99.90
2023-01-29T20:26:11.222Z,99.90
2023-01-29T20:28:39.659Z,99.90
2023-01-29T20:31:10.190Z,99.90
2023-01-29T20:33:39.599Z,99.90
2023-01-29T20:36:10.039Z,99.90
2023-01-29T20:38:38.097Z,99.90
2023-01-29T20:41:07.646Z,99.90
2023-01-29T20:43:36.084Z,99.90
2023-01-29T20:46:05.049Z,99.90
2023-01-29T20:48:34.703Z,99.90
2023-01-29T20:51:08.028Z,99.90
2023-01-29T20:53:36.876Z,99.90
2023-01-29T20:56:05.477Z,99.90
2023-01-29T20:58:33.641Z,99.90
2023-01-29T21:01:01.881Z,99.90
2023-01-29T21:03:29.899Z,99.90
2023-01-29T21:06:00.139Z,1.00
2023-01-29T21:08:28.147Z,99.90
2023-01-29T21:10:56.127Z,99.90
2023-01-29T21:13:24.119Z,99.90
2023-01-29T21:15:52.342Z,99.90
2023-01-29T21:18:20.354Z,99.90
2023-01-29T21:20:50.599Z,1.00
2023-01-29T21:23:20.345Z,1.00
2023-01-29T21:25:48.510Z,1.00
2023-01-29T21:28:16.912Z,1.00
2023-01-29T21:30:44.919Z,1.00
2023-01-29T21:33:13.030Z,1.00
2023-01-29T21:35:41.043Z,1.00
2023-01-29T21:38:09.303Z,1.00
2023-01-29T21:40:38.753Z,1.00
2023-01-29T21:43:11.489Z,1.00
2023-01-29T21:45:40.462Z,99.90
2023-01-29T21:48:08.526Z,99.90
2023-01-29T21:50:36.902Z,99.90
2023-01-29T21:53:05.128Z,99.90
2023-01-29T21:55:33.594Z,99.90
2023-01-29T21:58:04.271Z,99.90
2023-01-29T22:00:32.383Z,99.90
2023-01-29T22:03:00.592Z,99.90
2023-01-29T22:05:29.287Z,99.90
2023-01-29T22:07:57.337Z,99.90
2023-01-29T22:10:25.783Z,99.90
2023-01-29T22:12:54.209Z,99.90
2023-01-29T22:15:24.453Z,99.90
2023-01-29T22:17:52.557Z,99.90
2023-01-29T22:20:21.111Z,99.90
2023-01-29T22:22:49.374Z,99.90
2023-01-29T22:25:20.075Z,99.90
2023-01-29T22:27:48.167Z,99.90
2023-01-29T22:30:16.843Z,99.90
2023-01-29T22:32:46.485Z,99.90
2023-01-29T22:35:14.581Z,99.90
2023-01-29T22:37:42.599Z,99.90
2023-01-29T22:40:11.558Z,99.90
2023-01-29T22:42:39.555Z,99.90
2023-01-29T22:45:09.127Z,99.90
2023-01-29T22:47:37.206Z,99.90
2023-01-29T22:50:07.987Z,99.90
2023-01-29T22:52:39.393Z,99.90
2023-01-29T22:55:09.827Z,99.90
2023-01-29T22:57:38.323Z,99.90
2023-01-29T23:00:09.087Z,99.90
2023-01-29T23:02:37.437Z,99.90
2023-01-29T23:05:08.050Z,99.90
2023-01-29T23:07:36.242Z,99.90
2023-01-29T23:10:04.470Z,99.90
2023-01-29T23:12:32.550Z,99.90
2023-01-29T23:15:00.635Z,99.90
2023-01-29T23:17:28.696Z,99.90
2023-01-29T23:19:56.690Z,99.30
2023-01-29T23:22:26.561Z,95.10
2023-01-29T23:24:54.675Z,89.50
2023-01-29T23:27:21.713Z,63.40
2023-01-29T23:29:50.313Z,58.50
2023-01-29T23:32:21.451Z,39.30
2023-01-29T23:34:49.576Z,25.90
2023-01-29T23:37:17.662Z,16.90
2023-01-29T23:39:47.054Z,14.70
2023-01-29T23:42:15.073Z,4.70
2023-01-29T23:44:43.229Z,17.70
2023-01-29T23:47:11.638Z,8.60
2023-01-29T23:49:39.669Z,7.00
2023-01-29T23:52:07.778Z,1.00
2023-01-29T23:54:35.791Z,1.00
2023-01-29T23:57:05.306Z,8.00
2023-01-29T23:59:33.360Z,1.10
